createdAt,value
2018-12-31T00:02:04.458Z,98522.05
2018-12-31T00:04:36.229Z,98525.26
2018-12-31T00:07:07.517Z,98529.11
2018-12-31T00:09:38.011Z,98531.88
2018-12-31T00:12:10.817Z,98532.05
2018-12-31T00:14:42.366Z,98530.07
2018-12-31T00:17:13.067Z,98530.92
2018-12-31T00:19:47.490Z,98523.11
2018-12-31T00:22:17.858Z,98528.81
2018-12-31T00:24:48.755Z,98532.70
2018-12-31T00:27:19.168Z,98530.85
2018-12-31T00:29:49.534Z,98539.48
2018-12-31T00:32:19.741Z,98540.83
2018-12-31T00:34:49.909Z,98537.39
2018-12-31T00:37:20.327Z,98536.23
2018-12-31T00:39:51.077Z,98534.33
2018-12-31T00:42:21.224Z,98533.58
2018-12-31T00:44:51.775Z,98529.52
2018-12-31T00:47:25.338Z,98535.52
2018-12-31T00:49:55.507Z,98522.32
2018-12-31T00:52:25.952Z,98515.64
2018-12-31T00:55:06.341Z,98516.31
2018-12-31T00:57:37.135Z,98516.18
2018-12-31T01:00:13.423Z,98514.55
2018-12-31T01:02:43.659Z,98515.57
2018-12-31T01:05:14.908Z,98520.20
2018-12-31T01:07:45.844Z,98522.20
2018-12-31T01:10:17.023Z,98521.38
2018-12-31T01:12:47.193Z,98520.80
2018-12-31T01:15:17.670Z,98523.50
2018-12-31T01:17:47.809Z,98533.44
2018-12-31T01:20:17.931Z,98525.26
2018-12-31T01:22:48.127Z,98523.42
2018-12-31T01:25:18.323Z,98530.88
2018-12-31T01:27:48.432Z,98529.52
2018-12-31T01:30:18.580Z,98521.13
2018-12-31T01:32:48.689Z,98531.84
2018-12-31T01:35:19.128Z,98524.06
2018-12-31T01:37:49.583Z,98524.51
2018-12-31T01:40:19.950Z,98509.53
2018-12-31T01:42:50.364Z,98508.16
2018-12-31T01:45:20.875Z,98509.19
2018-12-31T01:47:51.014Z,98505.30
2018-12-31T01:50:21.403Z,98502.88
2018-12-31T01:52:51.511Z,98500.11
2018-12-31T01:55:21.867Z,98501.58
2018-12-31T01:57:52.321Z,98515.25
2018-12-31T02:00:22.442Z,98506.11
2018-12-31T02:02:52.837Z,98516.38
2018-12-31T02:05:22.945Z,98514.64
2018-12-31T02:07:53.341Z,98519.90
2018-12-31T02:10:23.470Z,98508.72
2018-12-31T02:12:53.586Z,98511.38
2018-12-31T02:15:23.747Z,98509.36
2018-12-31T02:17:53.850Z,98515.13
2018-12-31T02:20:24.976Z,98506.77
2018-12-31T02:22:55.177Z,98511.52
2018-12-31T02:25:26.286Z,98503.19
2018-12-31T02:27:56.466Z,98511.30
2018-12-31T02:30:26.599Z,98516.18
2018-12-31T02:32:58.777Z,98524.47
2018-12-31T02:35:28.810Z,98527.98
2018-12-31T02:37:59.206Z,98534.89
2018-12-31T02:40:29.335Z,98528.58
2018-12-31T02:42:59.449Z,98517.95
2018-12-31T02:45:30.549Z,98520.20
2018-12-31T02:48:00.915Z,98515.77
2018-12-31T02:50:31.011Z,98497.80
2018-12-31T02:53:01.157Z,98500.87
2018-12-31T02:55:31.257Z,98509.25
2018-12-31T02:58:01.694Z,98506.50
2018-12-31T03:00:32.060Z,98509.30
2018-12-31T03:03:02.168Z,98517.89
2018-12-31T03:05:32.319Z,98504.07
2018-12-31T03:08:02.777Z,98498.00
2018-12-31T03:10:33.137Z,98500.02
2018-12-31T03:13:04.297Z,98509.09
2018-12-31T03:15:35.405Z,98506.97
2018-12-31T03:18:05.540Z,98504.83
2018-12-31T03:20:35.662Z,98502.20
2018-12-31T03:23:05.830Z,98502.98
2018-12-31T03:25:35.913Z,98488.96
2018-12-31T03:28:06.034Z,98483.77
2018-12-31T03:30:36.419Z,98499.91
2018-12-31T03:33:06.544Z,98513.73
2018-12-31T03:35:37.628Z,98521.00
2018-12-31T03:38:07.770Z,98525.84
2018-12-31T03:40:37.954Z,98529.73
2018-12-31T03:43:08.047Z,98533.79
2018-12-31T03:45:38.190Z,98535.19
2018-12-31T03:48:08.326Z,98527.75
2018-12-31T03:50:39.719Z,98534.70
2018-12-31T03:53:09.827Z,98524.51
2018-12-31T03:55:39.917Z,98522.13
2018-12-31T03:58:10.319Z,98520.00
2018-12-31T04:00:40.429Z,98528.80
2018-12-31T04:03:10.547Z,98527.47
2018-12-31T04:05:41.619Z,98533.03
2018-12-31T04:08:11.740Z,98521.47
2018-12-31T04:10:41.882Z,98519.70
2018-12-31T04:13:11.992Z,98528.50
2018-12-31T04:15:42.134Z,98528.97
2018-12-31T04:18:12.521Z,98533.69
2018-12-31T04:20:42.623Z,98540.55
2018-12-31T04:23:12.756Z,98537.91
2018-12-31T04:25:43.154Z,98534.33
2018-12-31T04:28:13.577Z,98548.05
2018-12-31T04:30:43.755Z,98554.09
2018-12-31T04:33:13.917Z,98543.89
2018-12-31T04:35:44.528Z,98534.91
2018-12-31T04:38:15.119Z,98529.93
2018-12-31T04:40:45.240Z,98528.26
2018-12-31T04:43:15.458Z,98530.20
2018-12-31T04:45:45.616Z,98543.06
2018-12-31T04:48:16.802Z,98546.95
2018-12-31T04:50:46.938Z,98555.18
2018-12-31T04:53:17.122Z,98543.44
2018-12-31T04:55:47.304Z,98536.48
2018-12-31T04:58:22.907Z,98540.30
2018-12-31T05:00:49.566Z,98540.30
2018-12-31T05:03:19.808Z,98543.78
2018-12-31T05:05:49.965Z,98535.84
2018-12-31T05:08:20.115Z,98531.73
2018-12-31T05:10:50.245Z,98538.42
2018-12-31T05:13:21.414Z,98534.44
2018-12-31T05:15:51.563Z,98535.15
2018-12-31T05:18:22.052Z,98531.94
2018-12-31T05:20:52.204Z,98543.13
2018-12-31T05:23:23.451Z,98544.59
2018-12-31T05:25:53.620Z,98548.05
2018-12-31T05:28:24.056Z,98540.55
2018-12-31T05:30:54.492Z,98541.70
2018-12-31T05:33:24.622Z,98545.12
2018-12-31T05:35:54.850Z,98546.38
2018-12-31T05:38:25.312Z,98548.80
2018-12-31T05:40:56.518Z,98555.38
2018-12-31T05:43:26.639Z,98558.69
2018-12-31T05:45:56.800Z,98553.60
2018-12-31T05:48:26.923Z,98550.50
2018-12-31T05:50:57.037Z,98548.53
2018-12-31T05:53:27.534Z,98544.91
2018-12-31T05:55:59.783Z,98547.13
2018-12-31T05:58:30.525Z,98549.62
2018-12-31T06:01:00.753Z,98551.39
2018-12-31T06:03:31.144Z,98549.83
2018-12-31T06:06:01.649Z,98552.97
2018-12-31T06:08:31.804Z,98563.81
2018-12-31T06:11:02.388Z,98562.25
2018-12-31T06:13:32.522Z,98557.54
2018-12-31T06:16:02.926Z,98555.28
2018-12-31T06:18:33.400Z,98550.95
2018-12-31T06:21:04.227Z,98557.36
2018-12-31T06:23:34.648Z,98555.86
2018-12-31T06:26:06.142Z,98560.03
2018-12-31T06:28:36.849Z,98566.69
2018-12-31T06:31:07.066Z,98569.11
2018-12-31T06:33:37.208Z,98563.98
2018-12-31T06:36:07.479Z,98558.63
2018-12-31T06:38:37.596Z,98559.92
2018-12-31T06:41:07.821Z,98560.95
2018-12-31T06:43:38.172Z,98562.72
2018-12-31T06:46:08.643Z,98568.80
2018-12-31T06:48:39.161Z,98576.41
2018-12-31T06:51:10.505Z,98578.45
2018-12-31T06:53:41.248Z,98574.35
2018-12-31T06:56:12.124Z,98574.72
2018-12-31T06:58:42.250Z,98587.85
2018-12-31T07:01:12.519Z,98593.16
2018-12-31T07:03:42.660Z,98594.92
2018-12-31T07:06:14.052Z,98586.41
2018-12-31T07:08:44.274Z,98594.08
2018-12-31T07:11:14.399Z,98600.83
2018-12-31T07:13:44.579Z,98599.53
2018-12-31T07:16:15.715Z,98592.55
2018-12-31T07:18:45.811Z,98589.41
2018-12-31T07:21:15.983Z,98589.38
2018-12-31T07:23:46.138Z,98583.44
2018-12-31T07:26:16.513Z,98575.66
2018-12-31T07:28:46.992Z,98578.55
2018-12-31T07:31:17.089Z,98576.78
2018-12-31T07:33:47.497Z,98579.38
2018-12-31T07:36:17.616Z,98590.77
2018-12-31T07:38:48.017Z,98592.71
2018-12-31T07:41:19.418Z,98598.98
2018-12-31T07:43:50.932Z,98613.19
2018-12-31T07:46:21.384Z,98617.58
2018-12-31T07:48:51.503Z,98628.64
2018-12-31T07:51:21.610Z,98642.90
2018-12-31T07:53:51.984Z,98649.66
2018-12-31T07:56:24.101Z,98644.80
2018-12-31T07:58:54.854Z,98645.99
2018-12-31T08:01:24.963Z,98645.36
2018-12-31T08:03:55.425Z,98658.22
2018-12-31T08:06:25.544Z,98646.38
2018-12-31T08:08:55.742Z,98644.55
2018-12-31T08:11:26.139Z,98646.32
2018-12-31T08:13:58.313Z,98642.26
2018-12-31T08:16:28.376Z,98639.73
2018-12-31T08:18:58.885Z,98628.81
2018-12-31T08:21:28.991Z,98620.00
2018-12-31T08:23:59.299Z,98613.68
2018-12-31T08:26:29.425Z,98610.17
2018-12-31T08:28:59.553Z,98611.56
2018-12-31T08:31:29.922Z,98608.59
2018-12-31T08:34:00.313Z,98610.92
2018-12-31T08:36:30.689Z,98614.47
2018-12-31T08:39:01.394Z,98618.56
2018-12-31T08:41:33.897Z,98623.38
2018-12-31T08:44:04.018Z,98625.22
2018-12-31T08:46:34.174Z,98621.05
2018-12-31T08:49:04.331Z,98628.55
2018-12-31T08:51:34.453Z,98622.27
2018-12-31T08:54:04.653Z,98625.58
2018-12-31T08:56:35.309Z,98629.23
2018-12-31T08:59:05.687Z,98646.93
2018-12-31T09:01:35.918Z,98656.77
2018-12-31T09:04:06.098Z,98659.50
2018-12-31T09:06:36.759Z,98651.55
2018-12-31T09:09:08.353Z,98647.75
2018-12-31T09:11:38.741Z,98653.59
2018-12-31T09:14:09.152Z,98647.75
2018-12-31T09:16:39.301Z,98643.77
2018-12-31T09:19:11.623Z,98642.36
2018-12-31T09:21:41.802Z,98648.50
2018-12-31T09:24:12.171Z,98647.95
2018-12-31T09:26:42.591Z,98644.87
2018-12-31T09:29:13.385Z,98642.36
2018-12-31T09:31:43.770Z,98647.72
2018-12-31T09:34:14.027Z,98646.55
2018-12-31T09:36:44.733Z,98651.92
2018-12-31T09:39:15.201Z,98650.63
2018-12-31T09:41:45.627Z,98657.94
2018-12-31T09:44:16.120Z,98653.50
2018-12-31T09:46:47.327Z,98639.69
2018-12-31T09:49:23.853Z,98643.03
2018-12-31T09:51:55.099Z,98634.23
2018-12-31T09:54:25.225Z,98628.95
2018-12-31T09:56:56.867Z,98631.08
2018-12-31T09:59:27.310Z,98621.33
2018-12-31T10:01:57.700Z,98619.49
2018-12-31T10:04:27.976Z,98614.28
2018-12-31T10:06:58.077Z,98617.70
2018-12-31T10:09:28.490Z,98613.26
2018-12-31T10:11:58.916Z,98622.62
2018-12-31T10:14:29.097Z,98626.23
2018-12-31T10:16:59.221Z,98619.64
2018-12-31T10:19:29.406Z,98625.86
2018-12-31T10:21:59.677Z,98621.41
2018-12-31T10:24:30.089Z,98627.63
2018-12-31T10:27:00.252Z,98620.60
2018-12-31T10:29:35.904Z,98622.63
2018-12-31T10:32:02.208Z,98626.77
2018-12-31T10:34:32.980Z,98626.05
2018-12-31T10:37:04.089Z,98624.38
2018-12-31T10:39:34.211Z,98623.53
2018-12-31T10:42:04.678Z,98618.72
2018-12-31T10:44:39.903Z,98621.78
2018-12-31T10:47:10.069Z,98615.09
2018-12-31T10:49:41.421Z,98610.17
2018-12-31T10:52:11.635Z,98605.27
2018-12-31T10:54:41.765Z,98601.10
2018-12-31T10:57:11.961Z,98596.39
2018-12-31T10:59:42.122Z,98598.06
2018-12-31T11:02:12.270Z,98593.69
2018-12-31T11:05:06.761Z,98595.99
2018-12-31T11:07:36.917Z,98592.91
2018-12-31T11:10:07.336Z,98595.36
2018-12-31T11:12:38.500Z,98586.55
2018-12-31T11:15:09.888Z,98570.18
2018-12-31T11:17:40.027Z,98572.78
2018-12-31T11:20:10.161Z,98570.77
2018-12-31T11:22:40.312Z,98571.14
2018-12-31T11:25:13.848Z,98576.79
2018-12-31T11:27:44.217Z,98576.13
2018-12-31T11:30:14.950Z,98579.05
2018-12-31T11:32:45.623Z,98579.90
2018-12-31T11:35:18.166Z,98585.63
2018-12-31T11:37:48.670Z,98583.25
2018-12-31T11:40:18.807Z,98586.11
2018-12-31T11:42:49.539Z,98583.88
2018-12-31T11:45:19.691Z,98577.02
2018-12-31T11:47:50.175Z,98571.89
2018-12-31T11:50:21.693Z,98568.92
2018-12-31T11:52:52.910Z,98564.98
2018-12-31T11:55:24.087Z,98563.61
2018-12-31T11:57:54.767Z,98569.84
2018-12-31T12:00:26.003Z,98557.08
2018-12-31T12:02:56.206Z,98561.13
2018-12-31T12:05:26.597Z,98556.67
2018-12-31T12:07:56.764Z,98549.94
2018-12-31T12:10:27.415Z,98539.28
2018-12-31T12:12:57.856Z,98545.33
2018-12-31T12:15:28.363Z,98542.78
2018-12-31T12:17:58.803Z,98545.91
2018-12-31T12:20:29.042Z,98550.98
2018-12-31T12:22:59.176Z,98545.90
2018-12-31T12:25:29.391Z,98546.72
2018-12-31T12:27:59.731Z,98545.75
2018-12-31T12:30:30.170Z,98545.01
2018-12-31T12:33:00.309Z,98551.09
2018-12-31T12:35:30.403Z,98560.26
2018-12-31T12:38:02.098Z,98562.22
2018-12-31T12:40:32.502Z,98569.69
2018-12-31T12:43:02.861Z,98570.96
2018-12-31T12:45:33.545Z,98568.20
2018-12-31T12:48:03.660Z,98569.66
2018-12-31T12:50:33.802Z,98569.29
2018-12-31T12:53:04.229Z,98569.36
2018-12-31T12:55:34.725Z,98574.30
2018-12-31T12:58:04.997Z,98576.27
2018-12-31T13:00:35.116Z,98578.23
2018-12-31T13:03:05.342Z,98585.63
2018-12-31T13:05:35.487Z,98585.51
2018-12-31T13:08:05.649Z,98583.28
2018-12-31T13:10:36.049Z,98580.70
2018-12-31T13:13:06.541Z,98577.30
2018-12-31T13:15:36.739Z,98582.50
2018-12-31T13:18:06.872Z,98579.23
2018-12-31T13:20:37.291Z,98578.79
2018-12-31T13:23:07.455Z,98581.55
2018-12-31T13:25:37.598Z,98583.02
2018-12-31T13:28:07.824Z,98586.27
2018-12-31T13:30:37.920Z,98583.83
2018-12-31T13:33:08.314Z,98583.13
2018-12-31T13:35:39.247Z,98588.77
2018-12-31T13:38:09.784Z,98590.44
2018-12-31T13:40:39.898Z,98595.27
2018-12-31T13:43:11.020Z,98586.84
2018-12-31T13:45:41.195Z,98587.73
2018-12-31T13:48:11.556Z,98580.60
2018-12-31T13:50:41.989Z,98584.48
2018-12-31T13:53:12.353Z,98582.69
2018-12-31T13:55:42.499Z,98576.67
2018-12-31T13:58:13.173Z,98581.65
2018-12-31T14:00:43.473Z,98586.58
2018-12-31T14:03:17.568Z,98586.95
2018-12-31T14:05:46.155Z,98591.17
2018-12-31T14:08:16.335Z,98591.98
2018-12-31T14:10:46.761Z,98590.66
2018-12-31T14:13:17.004Z,98600.91
2018-12-31T14:15:47.158Z,98595.19
2018-12-31T14:18:17.654Z,98595.98
2018-12-31T14:20:47.968Z,98599.03
2018-12-31T14:24:34.212Z,98590.30
2018-12-31T14:27:04.394Z,98601.98
2018-12-31T14:29:35.046Z,98595.23
2018-12-31T14:32:05.329Z,98595.67
2018-12-31T14:34:38.823Z,98605.61
2018-12-31T14:37:09.212Z,98608.39
2018-12-31T14:39:39.713Z,98604.98
2018-12-31T14:42:16.831Z,98588.97
2018-12-31T14:44:54.561Z,98593.72
2018-12-31T14:47:24.993Z,98599.97
2018-12-31T14:49:55.669Z,98599.98
2018-12-31T14:52:30.090Z,98599.88
2018-12-31T14:55:02.470Z,98601.80
2018-12-31T14:57:32.642Z,98591.80
2018-12-31T15:00:03.124Z,98585.69
2018-12-31T15:02:33.271Z,98593.11
2018-12-31T15:05:03.406Z,98596.28
2018-12-31T15:07:34.193Z,98596.66
2018-12-31T15:10:04.479Z,98602.60
2018-12-31T15:12:34.615Z,98602.02
2018-12-31T15:15:05.709Z,98603.97
2018-12-31T15:17:35.943Z,98604.36
2018-12-31T15:20:09.840Z,98611.89
2018-12-31T15:22:40.015Z,98609.64
2018-12-31T15:25:10.234Z,98608.53
2018-12-31T15:27:40.682Z,98613.36
2018-12-31T15:30:11.068Z,98607.34
2018-12-31T15:32:41.801Z,98601.00
2018-12-31T15:35:12.157Z,98602.39
2018-12-31T15:37:42.645Z,98604.44
2018-12-31T15:40:13.465Z,98605.58
2018-12-31T15:42:43.928Z,98605.12
2018-12-31T15:45:14.168Z,98600.67
2018-12-31T15:47:44.326Z,98607.24
2018-12-31T15:50:14.479Z,98606.32
2018-12-31T15:52:44.672Z,98601.41
2018-12-31T15:55:18.046Z,98604.28
2018-12-31T15:57:48.517Z,98601.13
2018-12-31T16:00:18.823Z,98604.08
2018-12-31T16:02:49.271Z,98610.38
2018-12-31T16:05:19.414Z,98610.22
2018-12-31T16:07:49.852Z,98605.38
2018-12-31T16:10:20.041Z,98611.79
2018-12-31T16:12:50.204Z,98606.02
2018-12-31T16:15:20.954Z,98601.86
2018-12-31T16:17:51.261Z,98601.78
2018-12-31T16:20:21.425Z,98595.55
2018-12-31T16:22:53.079Z,98606.86
2018-12-31T16:25:23.168Z,98602.33
2018-12-31T16:27:53.586Z,98609.91
2018-12-31T16:30:24.364Z,98615.02
2018-12-31T16:32:54.587Z,98613.37
2018-12-31T16:35:24.729Z,98606.67
2018-12-31T16:37:55.134Z,98608.25
2018-12-31T16:40:25.254Z,98612.98
2018-12-31T16:42:55.408Z,98615.50
2018-12-31T16:45:26.080Z,98616.52
2018-12-31T16:47:56.201Z,98614.30
2018-12-31T16:50:26.364Z,98612.60
2018-12-31T16:52:56.533Z,98607.99
2018-12-31T16:55:26.675Z,98611.59
2018-12-31T16:57:58.564Z,98606.60
2018-12-31T17:00:28.802Z,98604.81
2018-12-31T17:02:58.963Z,98599.81
2018-12-31T17:05:29.255Z,98598.14
2018-12-31T17:07:59.756Z,98593.88
2018-12-31T17:10:29.875Z,98592.49
2018-12-31T17:13:00.037Z,98594.19
2018-12-31T17:15:30.189Z,98597.80
2018-12-31T17:18:00.329Z,98600.56
2018-12-31T17:20:30.458Z,98606.95
2018-12-31T17:23:00.669Z,98601.58
2018-12-31T17:25:31.136Z,98600.95
2018-12-31T17:28:01.703Z,98598.16
2018-12-31T17:30:31.860Z,98604.81
2018-12-31T17:33:02.611Z,98599.09
2018-12-31T17:35:32.732Z,98593.88
2018-12-31T17:38:02.938Z,98586.84
2018-12-31T17:40:33.063Z,98585.84
2018-12-31T17:43:03.460Z,98588.90
2018-12-31T17:45:33.566Z,98592.80
2018-12-31T17:48:04.707Z,98591.75
2018-12-31T17:50:34.857Z,98596.31
2018-12-31T17:53:05.146Z,98599.37
2018-12-31T17:55:35.240Z,98596.66
2018-12-31T17:58:05.412Z,98596.11
2018-12-31T18:00:35.556Z,98596.20
2018-12-31T18:03:05.666Z,98594.92
2018-12-31T18:05:35.823Z,98600.19
2018-12-31T18:08:06.640Z,98598.70
2018-12-31T18:10:36.793Z,98603.70
2018-12-31T18:13:06.927Z,98601.39
2018-12-31T18:15:37.095Z,98601.02
2018-12-31T18:18:07.541Z,98598.43
2018-12-31T18:20:37.679Z,98604.84
2018-12-31T18:23:07.802Z,98600.20
2018-12-31T18:25:38.082Z,98602.89
2018-12-31T18:28:08.211Z,98602.78
2018-12-31T18:30:38.537Z,98601.59
2018-12-31T18:33:09.459Z,98602.70
2018-12-31T18:35:39.566Z,98601.39
2018-12-31T18:38:10.769Z,98610.41
2018-12-31T18:40:41.146Z,98621.52
2018-12-31T18:43:11.333Z,98628.28
2018-12-31T18:45:41.499Z,98628.74
2018-12-31T18:48:11.634Z,98629.67
2018-12-31T18:50:41.752Z,98627.36
2018-12-31T18:53:11.881Z,98631.52
2018-12-31T18:55:42.035Z,98631.72
2018-12-31T18:58:12.200Z,98632.47
2018-12-31T19:00:42.332Z,98641.35
2018-12-31T19:03:12.753Z,98639.61
2018-12-31T19:05:43.700Z,98636.91
2018-12-31T19:08:13.894Z,98642.11
2018-12-31T19:10:44.053Z,98636.91
2018-12-31T19:13:14.194Z,98640.33
2018-12-31T19:15:44.361Z,98634.58
2018-12-31T19:18:14.749Z,98624.28
2018-12-31T19:20:45.182Z,98619.09
2018-12-31T19:23:15.287Z,98620.23
2018-12-31T19:25:45.708Z,98609.19
2018-12-31T19:28:16.059Z,98604.08
2018-12-31T19:30:46.195Z,98605.57
2018-12-31T19:33:16.318Z,98610.77
2018-12-31T19:35:46.536Z,98607.89
2018-12-31T19:38:16.654Z,98609.83
2018-12-31T19:40:47.137Z,98609.29
2018-12-31T19:43:17.554Z,98607.05
2018-12-31T19:45:48.673Z,98612.52
2018-12-31T19:48:18.833Z,98607.69
2018-12-31T19:50:48.981Z,98614.36
2018-12-31T19:53:19.775Z,98610.84
2018-12-31T19:55:49.926Z,98613.83
2018-12-31T19:58:20.106Z,98611.96
2018-12-31T20:00:50.239Z,98606.48
2018-12-31T20:03:20.459Z,98596.84
2018-12-31T20:05:50.762Z,98596.68
2018-12-31T20:08:21.225Z,98592.30
2018-12-31T20:10:51.677Z,98598.69
2018-12-31T20:13:22.038Z,98597.13
2018-12-31T20:15:52.221Z,98600.66
2018-12-31T20:18:22.431Z,98599.19
2018-12-31T20:20:52.544Z,98593.41
2018-12-31T20:23:22.677Z,98596.84
2018-12-31T20:25:53.110Z,98596.38
2018-12-31T20:28:23.363Z,98597.23
2018-12-31T20:30:53.507Z,98601.29
2018-12-31T20:33:23.649Z,98602.60
2018-12-31T20:35:53.803Z,98600.45
2018-12-31T20:38:23.923Z,98610.47
2018-12-31T20:40:54.318Z,98597.13
2018-12-31T20:43:24.443Z,98596.30
2018-12-31T20:45:54.586Z,98594.25
2018-12-31T20:48:24.684Z,98588.03
2018-12-31T20:50:54.827Z,98595.72
2018-12-31T20:53:25.232Z,98599.62
2018-12-31T20:55:55.349Z,98599.98
2018-12-31T20:58:25.469Z,98597.30
2018-12-31T21:00:55.846Z,98593.98
2018-12-31T21:03:25.964Z,98598.25
2018-12-31T21:05:56.127Z,98593.03
2018-12-31T21:08:26.602Z,98593.52
2018-12-31T21:10:56.789Z,98593.30
2018-12-31T21:13:26.929Z,98597.02
2018-12-31T21:15:57.067Z,98592.00
2018-12-31T21:18:27.749Z,98593.59
2018-12-31T21:20:58.234Z,98595.34
2018-12-31T21:23:28.373Z,98593.67
2018-12-31T21:25:58.704Z,98593.76
2018-12-31T21:28:28.976Z,98592.46
2018-12-31T21:30:59.086Z,98593.39
2018-12-31T21:33:29.210Z,98591.00
2018-12-31T21:35:59.427Z,98591.08
2018-12-31T21:38:29.598Z,98591.08
2018-12-31T21:40:59.712Z,98590.54
2018-12-31T21:43:29.845Z,98591.47
2018-12-31T21:46:00.344Z,98593.14
2018-12-31T21:48:30.523Z,98594.44
2018-12-31T21:51:00.644Z,98590.25
2018-12-31T21:53:30.790Z,98584.80
2018-12-31T21:56:01.319Z,98586.08
2018-12-31T21:58:31.882Z,98576.05
2018-12-31T22:01:02.018Z,98574.30
2018-12-31T22:03:32.171Z,98579.94
2018-12-31T22:06:02.624Z,98586.16
2018-12-31T22:08:32.762Z,98579.59
2018-12-31T22:11:02.904Z,98577.45
2018-12-31T22:13:33.038Z,98575.32
2018-12-31T22:16:03.459Z,98574.22
2018-12-31T22:18:33.776Z,98570.98
2018-12-31T22:21:04.360Z,98564.01
2018-12-31T22:23:34.486Z,98569.84
2018-12-31T22:26:04.669Z,98565.30
2018-12-31T22:28:34.842Z,98568.19
2018-12-31T22:31:05.023Z,98558.75
2018-12-31T22:33:35.199Z,98561.73
2018-12-31T22:36:05.563Z,98556.55
2018-12-31T22:38:35.697Z,98554.59
2018-12-31T22:41:05.836Z,98546.52
2018-12-31T22:43:36.387Z,98542.31
2018-12-31T22:46:06.523Z,98539.72
2018-12-31T22:48:36.670Z,98537.50
2018-12-31T22:51:06.808Z,98543.36
2018-12-31T22:53:37.649Z,98542.91
2018-12-31T22:56:07.827Z,98539.83
2018-12-31T22:58:38.053Z,98535.66
2018-12-31T23:01:08.356Z,98536.39
2018-12-31T23:03:38.638Z,98537.50
2018-12-31T23:06:08.743Z,98537.14
2018-12-31T23:08:39.168Z,98537.50
2018-12-31T23:11:09.306Z,98537.61
2018-12-31T23:13:41.550Z,98527.02
2018-12-31T23:16:19.407Z,98527.02
2018-12-31T23:18:49.872Z,98537.05
2018-12-31T23:21:20.149Z,98538.64
2018-12-31T23:23:50.357Z,98530.30
2018-12-31T23:26:21.294Z,98532.52
2018-12-31T23:28:52.758Z,98526.94
2018-12-31T23:31:23.247Z,98525.80
2018-12-31T23:33:53.482Z,98524.89
2018-12-31T23:36:23.774Z,98522.48
2018-12-31T23:38:54.248Z,98520.30
2018-12-31T23:41:24.526Z,98513.22
2018-12-31T23:43:54.870Z,98514.90
2018-12-31T23:46:25.040Z,98519.24
2018-12-31T23:48:55.309Z,98505.42
2018-12-31T23:51:25.716Z,98507.13
2018-12-31T23:53:55.940Z,98500.43
2018-12-31T23:56:26.619Z,98507.13
2018-12-31T23:58:56.744Z,98506.66
